Flight Track Log - Related Links

Times and Time Zones

All times are in EDT time to prevent confusion due to time zone crossing. See the ASA664 flight status page for this flight to view local times or setup timezone preferences in your user account.

Time Position Orientation Groundspeed Altitude Reporting Facility
EDT Latitude Longitude Course Direction KTS MPH feet Rate Location/Type
Thu 04:03:44 PM 47.4233 -122.3072 181° South 189 217 1,600  Level Seattle Center
Thu 04:04:53 PM 47.3614 -122.3089 181° South 203 234 3,100 1,662 Climbing Seattle Center
Thu 04:05:54 PM 47.2817 -122.3092 180° South 261 300 5,200 2,164 Climbing Seattle Center
Thu 04:06:55 PM 47.2047 -122.3000 175° South 277 319 7,500 2,311 Climbing Seattle Center
Thu 04:07:56 PM 47.1319 -122.2606 160° South 279 321 9,900 2,066 Climbing Seattle Center
Thu 04:08:57 PM 47.0564 -122.2192 160° South 288 331 11,700 1,869 Climbing Seattle Center
Thu 04:09:58 PM 46.9661 -122.1717 160° South 320 368 13,700 1,967 Climbing Seattle Center
Thu 04:10:59 PM 46.8778 -122.1250 160° South 336 387 15,700 2,016 Climbing Seattle Center
Thu 04:12:00 PM 46.7850 -122.0761 160° South 353 406 17,800 1,820 Climbing Seattle Center
Thu 04:13:01 PM 46.6894 -122.0297 162° South 360 414 19,400 1,574 Climbing Seattle Center
Thu 04:14:02 PM 46.6031 -121.9569 150° Southeast 370 426 21,000 1,525 Climbing Seattle Center
Thu 04:15:03 PM 46.5514 -121.8208 119° Southeast 386 444 22,500 1,475 Climbing Seattle Center
Thu 04:16:04 PM 46.4969 -121.6853 120° Southeast 392 451 24,000 1,377 Climbing Seattle Center
Thu 04:17:05 PM 46.4444 -121.5519 120° Southeast 401 461 25,300 1,377 Climbing Seattle Center
Thu 04:18:06 PM 46.3761 -121.3825 120° Southeast 407 468 26,800 1,279 Climbing Seattle Center
Thu 04:19:07 PM 46.3178 -121.2375 120° Southeast 414 476 27,900 1,033 Climbing Seattle Center
Thu 04:20:08 PM 46.2578 -121.0881 120° Southeast 426 490 28,900 934 Climbing Seattle Center
Thu 04:21:09 PM 46.1972 -120.9386 120° Southeast 431 496 29,800 836 Climbing Seattle Center
Thu 04:22:10 PM 46.1339 -120.7850 121° Southeast 442 509 30,600 787 Climbing Seattle Center
Thu 04:23:11 PM 46.0703 -120.6317 121° Southeast 446 513 31,400 787 Climbing Seattle Center
Thu 04:24:12 PM 46.0056 -120.4767 121° Southeast 450 518 32,200 689 Climbing Seattle Center
Thu 04:25:13 PM 45.9406 -120.3208 121° Southeast 455 524 32,800 393 Climbing Seattle Center
Thu 04:26:14 PM 45.8739 -120.1642 121° Southeast 457 526 33,000 98 Climbing Seattle Center
Thu 04:27:16 PM 45.8086 -120.0078 121° Southeast 458 527 33,000  Level Seattle Center
Thu 04:28:17 PM 45.7419 -119.8522 122° Southeast 458 527 33,000  Level Seattle Center
Thu 04:29:18 PM 45.6756 -119.6972 121° Southeast 456 525 33,000  Level Seattle Center
Thu 04:30:19 PM 45.6097 -119.5433 121° Southeast 455 524 33,000  Level Seattle Center
Thu 04:31:20 PM 45.5314 -119.3606 121° Southeast 450 518 33,000  Level Seattle Center
Thu 04:32:21 PM 45.4647 -119.2078 122° Southeast 451 519 33,000  Level Seattle Center
Thu 04:33:22 PM 45.3989 -119.0553 122° Southeast 451 519 33,000  Level Seattle Center
Thu 04:34:23 PM 45.3317 -118.9033 122° Southeast 452 520 33,000  Level Seattle Center
Thu 04:35:24 PM 45.2633 -118.7514 123° Southeast 454 522 33,000  Level Seattle Center
Thu 04:36:25 PM 45.1969 -118.5989 122° Southeast 453 521 33,000  Level Seattle Center
Thu 04:37:27 PM 45.1281 -118.4475 123° Southeast 456 525 33,000  Level Seattle Center
Thu 04:38:28 PM 45.0600 -118.2928 122° Southeast 455 524 33,000  Level Seattle Center
Thu 04:39:29 PM 44.9836 -118.1253 123° Southeast 454 522 33,000  Level Seattle Center
Thu 04:40:30 PM 44.9189 -117.9808 122° Southeast 455 524 33,000  Level Seattle Center
Thu 04:41:31 PM 44.8517 -117.8372 123° Southeast 458 527 33,000  Level Seattle Center
Thu 04:41:46 PM 44.8297 -117.7894 123° Southeast 457 526 33,000  Level Salt Lake Center
Thu 04:42:48 PM 44.7647 -117.6447 122° Southeast 458 527 33,000  Level Salt Lake Center
Thu 04:43:49 PM 44.6892 -117.4750 122° Southeast 460 529 33,000  Level Salt Lake Center
Thu 04:44:34 PM 44.6553 -117.3700 114° Southeast 460 529 33,000  Level Seattle Center
Thu 04:45:35 PM 44.6019 -117.1861 112° Southeast 456 525 33,000  Level Seattle Center
Thu 04:45:52 PM 44.5858 -117.1342 114° Southeast 458 527 33,000  Level Salt Lake Center
Thu 04:46:54 PM 44.5372 -116.9781 114° Southeast 458 527 33,000  Level Salt Lake Center
Thu 04:47:55 PM 44.4906 -116.8231 113° Southeast 453 521 33,000  Level Salt Lake Center
Thu 04:48:57 PM 44.4336 -116.6428 114° Southeast 454 522 33,000  Level Salt Lake Center
Thu 04:49:58 PM 44.3850 -116.4889 114° Southeast 454 522 33,000  Level Salt Lake Center
Thu 04:51:00 PM 44.3283 -116.3108 114° Southeast 454 522 33,000  Level Salt Lake Center
Thu 04:52:02 PM 44.2925 -116.1522 107° East 455 524 33,000  Level Salt Lake Center
Thu 04:53:03 PM 44.2553 -115.9664 106° East 451 519 33,000  Level Salt Lake Center
Thu 04:54:05 PM 44.2219 -115.8053 106° East 452 520 33,000  Level Salt Lake Center
Thu 04:55:07 PM 44.1467 -115.6339 121° Southeast 469 540 33,000  Level Salt Lake Center
Thu 04:56:08 PM 44.0733 -115.4972 127° Southeast 462 532 33,000  Level Salt Lake Center
Thu 04:57:10 PM 43.9864 -115.3375 127° Southeast 462 532 33,000  Level Salt Lake Center
Thu 04:58:11 PM 43.9131 -115.2011 127° Southeast 462 532 33,000  Level Salt Lake Center
Thu 04:59:13 PM 43.8392 -115.0664 127° Southeast 460 529 33,000  Level Salt Lake Center
Thu 05:00:15 PM 43.7544 -114.9075 126° Southeast 458 527 33,000  Level Salt Lake Center
Thu 05:01:16 PM 43.6808 -114.7714 127° Southeast 461 531 33,000  Level Salt Lake Center
Thu 05:02:18 PM 43.5900 -114.6178 129° Southeast 461 531 33,000  Level Salt Lake Center
Thu 05:03:20 PM 43.5122 -114.4869 129° Southeast 460 529 33,000  Level Salt Lake Center
Thu 05:04:21 PM 43.4178 -114.3403 132° Southeast 460 529 33,000  Level Salt Lake Center
Thu 05:05:23 PM 43.3331 -114.2200 134° Southeast 457 526 33,000  Level Salt Lake Center
Thu 05:06:25 PM 43.2467 -114.1042 136° Southeast 455 524 33,000  Level Salt Lake Center
Thu 05:07:26 PM 43.1528 -113.9858 137° Southeast 451 519 33,000  Level Salt Lake Center
Thu 05:08:28 PM 43.0442 -113.8964 149° Southeast 455 524 33,000 48 Level Salt Lake Center
Thu 05:09:30 PM 42.9175 -113.7889 148° Southeast 460 529 33,100 293 Climbing Salt Lake Center
Thu 05:10:31 PM 42.8142 -113.7006 148° Southeast 458 527 33,600 488 Climbing Salt Lake Center
Thu 05:11:33 PM 42.6975 -113.5947 146° Southeast 453 521 34,100 484 Climbing Salt Lake Center
Thu 05:12:35 PM 42.6067 -113.4892 139° Southeast 452 520 34,600 439 Climbing Salt Lake Center
Thu 05:13:36 PM 42.5397 -113.3478 123° Southeast 446 513 35,000 195 Climbing Salt Lake Center
Thu 05:14:38 PM 42.4947 -113.1975 112° Southeast 434 499 35,000  Level Salt Lake Center
Thu 05:15:40 PM 42.4517 -113.0439 111° Southeast 437 503 35,000  Level Salt Lake Center
Thu 05:16:42 PM 42.3922 -112.8633 114° Southeast 438 504 35,000  Level Salt Lake Center
Thu 05:17:43 PM 42.3275 -112.7244 122° Southeast 438 504 35,000  Level Salt Lake Center
Thu 05:18:45 PM 42.2619 -112.5839 122° Southeast 444 511 35,000  Level Salt Lake Center
Thu 05:19:47 PM 42.1958 -112.4439 122° Southeast 443 510 35,000  Level Salt Lake Center
Thu 05:20:49 PM 42.1208 -112.3106 127° Southeast 446 513 35,000  Level Salt Lake Center
Thu 05:21:51 PM 42.0456 -112.1756 127° Southeast 451 519 35,000  Level Salt Lake Center
Thu 05:22:52 PM 41.9706 -112.0417 127° Southeast 450 518 35,000  Level Salt Lake Center
Thu 05:23:54 PM 41.8789 -111.8789 127° Southeast 454 522 35,000  Level Salt Lake Center
Thu 05:24:56 PM 41.8014 -111.7444 128° Southeast 455 524 35,000  Level Salt Lake Center
Thu 05:25:58 PM 41.7269 -111.6094 126° Southeast 451 519 35,000  Level Salt Lake Center
Thu 05:27:00 PM 41.6506 -111.4750 127° Southeast 452 520 35,000  Level Salt Lake Center
Thu 05:28:02 PM 41.5731 -111.3425 128° Southeast 452 520 35,000  Level Salt Lake Center
Thu 05:29:04 PM 41.4961 -111.2100 128° Southeast 450 518 35,000  Level Salt Lake Center
Thu 05:30:05 PM 41.4200 -111.0778 127° Southeast 448 516 35,000  Level Salt Lake Center
Thu 05:31:07 PM 41.3325 -110.9250 127° Southeast 446 513 35,000  Level Salt Lake Center
Thu 05:32:09 PM 41.2603 -110.8014 128° Southeast 445 512 35,000  Level Salt Lake Center
Thu 05:33:11 PM 41.1756 -110.6575 128° Southeast 444 511 35,000  Level Salt Lake Center
Thu 05:34:13 PM 41.1039 -110.5344 128° Southeast 443 510 35,000  Level Salt Lake Center
Thu 05:35:15 PM 41.0192 -110.3914 128° Southeast 443 510 35,000  Level Salt Lake Center
Thu 05:36:17 PM 40.9464 -110.2692 128° Southeast 445 512 35,000  Level Salt Lake Center
Thu 05:37:19 PM 40.8617 -110.1258 128° Southeast 445 512 35,000  Level Salt Lake Center
Thu 05:38:20 PM 40.7833 -109.9950 128° Southeast 446 513 35,000  Level Salt Lake Center
Thu 05:39:22 PM 40.7092 -109.8736 129° Southeast 445 512 35,000  Level Salt Lake Center
Thu 05:40:24 PM 40.6364 -109.7517 128° Southeast 443 510 35,000  Level Salt Lake Center
Thu 05:41:26 PM 40.5506 -109.6106 129° Southeast 442 509 35,000  Level Salt Lake Center
Thu 05:42:28 PM 40.4783 -109.4917 129° Southeast 437 503 35,000  Level Salt Lake Center
Thu 05:43:30 PM 40.3933 -109.3522 129° Southeast 438 504 35,000  Level Salt Lake Center
Thu 05:44:32 PM 40.3203 -109.2331 129° Southeast 439 505 35,000  Level Salt Lake Center
Thu 05:45:34 PM 40.2347 -109.0944 129° Southeast 438 504 35,000  Level Salt Lake Center
Thu 05:45:57 PM 40.2100 -109.0533 128° Southeast 438 504 35,000  Level Denver Center
Thu 05:46:59 PM 40.1253 -108.9147 129° Southeast 434 499 35,000  Level Denver Center
Thu 05:48:01 PM 40.0514 -108.7961 129° Southeast 438 504 35,000  Level Denver Center
Thu 05:49:03 PM 39.9769 -108.6778 129° Southeast 438 504 35,000  Level Denver Center
Thu 05:50:05 PM 39.8897 -108.5381 129° Southeast 441 507 35,000  Level Denver Center
Thu 05:51:07 PM 39.8136 -108.4194 130° Southeast 442 509 35,000  Level Denver Center
Thu 05:52:09 PM 39.7242 -108.2797 130° Southeast 453 521 35,000  Level Denver Center
Thu 05:53:12 PM 39.6506 -108.1608 129° Southeast 438 504 35,000  Level Denver Center
Thu 05:54:14 PM 39.5631 -108.0239 130° Southeast 439 505 35,000  Level Denver Center
Thu 05:55:16 PM 39.4867 -107.9050 130° Southeast 445 512 35,000  Level Denver Center
Thu 05:56:18 PM 39.3994 -107.7678 129° Southeast 444 511 35,000  Level Denver Center
Thu 05:57:20 PM 39.3236 -107.6503 130° Southeast 444 511 35,000  Level Denver Center
Thu 05:58:22 PM 39.2475 -107.5350 130° Southeast 441 507 35,000  Level Denver Center
Thu 05:59:24 PM 39.1597 -107.4000 130° Southeast 440 506 35,000  Level Denver Center
Thu 06:00:26 PM 39.0847 -107.2825 129° Southeast 442 509 35,000  Level Denver Center
Thu 06:01:28 PM 39.0008 -107.1481 129° Southeast 433 498 35,000  Level Denver Center
Thu 06:02:30 PM 38.9289 -107.0314 128° Southeast 435 501 35,000  Level Denver Center
Thu 06:03:32 PM 38.8467 -106.9031 129° Southeast 425 489 35,000  Level Denver Center
Thu 06:04:34 PM 38.7731 -106.7847 129° Southeast 425 489 35,000  Level Denver Center
Thu 06:05:36 PM 38.6989 -106.6686 129° Southeast 420 483 35,000  Level Denver Center
Thu 06:06:38 PM 38.6250 -106.5531 129° Southeast 420 483 35,000  Level Denver Center
Thu 06:07:40 PM 38.5511 -106.4386 130° Southeast 418 481 35,000  Level Denver Center
Thu 06:08:42 PM 38.4772 -106.3211 129° Southeast 424 488 35,000  Level Denver Center
Thu 06:09:44 PM 38.3858 -106.1811 130° Southeast 428 493 35,000  Level Denver Center
Thu 06:10:46 PM 38.3150 -106.0625 127° Southeast 428 493 35,000  Level Denver Center
Thu 06:11:48 PM 38.2294 -105.9342 130° Southeast 425 489 35,000  Level Denver Center
Thu 06:12:50 PM 38.1564 -105.8236 130° Southeast 426 490 35,000  Level Denver Center
Thu 06:13:52 PM 38.0728 -105.6931 129° Southeast 426 490 35,000  Level Denver Center
Thu 06:14:54 PM 37.9994 -105.5833 130° Southeast 425 489 35,000  Level Denver Center
Thu 06:15:56 PM 37.9261 -105.4725 130° Southeast 427 491 35,000  Level Denver Center
Thu 06:16:58 PM 37.8367 -105.3411 131° Southeast 441 507 35,000  Level Denver Center
Thu 06:18:00 PM 37.7606 -105.2283 130° Southeast 442 509 35,000  Level Denver Center
Thu 06:19:02 PM 37.6700 -105.0964 131° Southeast 443 510 35,000  Level Denver Center
Thu 06:20:04 PM 37.5933 -104.9819 130° Southeast 446 513 35,000  Level Denver Center
Thu 06:21:06 PM 37.5036 -104.8506 131° Southeast 444 511 35,000  Level Denver Center
Thu 06:22:08 PM 37.4253 -104.7361 131° Southeast 450 518 35,000  Level Denver Center
Thu 06:23:10 PM 37.3342 -104.6053 131° Southeast 448 516 35,000  Level Denver Center
Thu 06:24:12 PM 37.2561 -104.4914 131° Southeast 450 518 35,000  Level Denver Center
Thu 06:25:15 PM 37.1642 -104.3597 131° Southeast 452 520 35,000  Level Denver Center
Thu 06:25:49 PM 37.1108 -104.2819 131° Southeast 456 525 35,000  Level Albuquerque Center
Thu 06:26:51 PM 37.0308 -104.1664 131° Southeast 460 529 35,000  Level Albuquerque Center
Thu 06:27:53 PM 36.9653 -104.0347 122° Southeast 468 539 35,000  Level Albuquerque Center
Thu 06:28:55 PM 36.8878 -103.8831 123° Southeast 466 536 35,000  Level Albuquerque Center
Thu 06:29:57 PM 36.8206 -103.7533 123° Southeast 466 536 35,000  Level Albuquerque Center
Thu 06:30:59 PM 36.7428 -103.6008 122° Southeast 468 539 35,000  Level Albuquerque Center
Thu 06:32:01 PM 36.6756 -103.4700 123° Southeast 469 540 35,000  Level Albuquerque Center
Thu 06:33:03 PM 36.5981 -103.3169 122° Southeast 473 544 35,000  Level Albuquerque Center
Thu 06:34:04 PM 36.5253 -103.1756 123° Southeast 478 550 35,000  Level Albuquerque Center
Thu 06:35:06 PM 36.4519 -103.0364 123° Southeast 478 550 35,000  Level Albuquerque Center
Thu 06:36:08 PM 36.3800 -102.8981 123° Southeast 475 547 35,000  Level Albuquerque Center
Thu 06:37:10 PM 36.3031 -102.7517 123° Southeast 475 547 35,000  Level Albuquerque Center
Thu 06:38:12 PM 36.2325 -102.6153 123° Southeast 471 542 35,000  Level Albuquerque Center
Thu 06:39:14 PM 36.1611 -102.4811 123° Southeast 468 539 35,000  Level Albuquerque Center
Thu 06:40:16 PM 36.0911 -102.3469 123° Southeast 467 537 35,000  Level Albuquerque Center
Thu 06:41:18 PM 36.0047 -102.1875 124° Southeast 464 534 35,000  Level Albuquerque Center
Thu 06:42:19 PM 35.9353 -102.0553 123° Southeast 462 532 35,000  Level Albuquerque Center
Thu 06:43:22 PM 35.8642 -101.9219 123° Southeast 463 533 35,000  Level Albuquerque Center
Thu 06:44:23 PM 35.7925 -101.7883 123° Southeast 466 536 35,000  Level Albuquerque Center
Thu 06:45:25 PM 35.7356 -101.6433 116° Southeast 477 549 35,000  Level Albuquerque Center
Thu 06:46:27 PM 35.6978 -101.4872 107° East 474 545 35,000  Level Albuquerque Center
Thu 06:47:28 PM 35.6597 -101.3306 107° East 475 547 35,000  Level Albuquerque Center
Thu 06:48:30 PM 35.6214 -101.1731 107° East 477 549 35,000  Level Albuquerque Center
Thu 06:49:32 PM 35.5847 -101.0175 106° East 475 547 35,000  Level Albuquerque Center
Thu 06:50:33 PM 35.5439 -100.8308 105° East 472 543 35,000  Level Albuquerque Center
Thu 06:51:35 PM 35.5094 -100.6744 105° East 473 544 35,000  Level Albuquerque Center
Thu 06:52:37 PM 35.4781 -100.5319 105° East 475 547 35,000  Level Albuquerque Center
Thu 06:53:39 PM 35.4422 -100.3733 105° East 481 554 35,000  Level Albuquerque Center
Thu 06:54:40 PM 35.3972 -100.1825 106° East 485 558 35,000  Level Albuquerque Center
Thu 06:55:42 PM 35.3269 -100.0450 122° Southeast 479 551 35,000  Level Albuquerque Center
Thu 06:56:44 PM 35.2453 -99.9128 127° Southeast 484 557 35,000  Level Albuquerque Center
Thu 06:57:45 PM 35.1389 -99.8203 145° Southeast 473 544 35,000  Level Albuquerque Center
Thu 06:58:47 PM 35.0247 -99.7525 154° Southeast 463 533 35,000  Level Albuquerque Center
Thu 06:59:49 PM 34.9119 -99.6897 155° Southeast 451 519 35,000 -54 Level Albuquerque Center
Thu 07:00:38 PM 34.8108 -99.6314 155° Southeast 453 521 34,900 -330 Descending Fort Worth Center
Thu 07:01:38 PM 34.7033 -99.5706 155° Southeast 443 510 34,400 -500 Descending Fort Worth Center
Thu 07:02:38 PM 34.5917 -99.5097 156° South 438 504 33,900 -550 Descending Fort Worth Center
Thu 07:03:38 PM 34.4844 -99.4367 151° Southeast 438 504 33,300 -500 Descending Fort Worth Center
Thu 07:04:38 PM 34.4031 -99.3089 128° Southeast 443 510 32,900 -600 Descending Fort Worth Center
Thu 07:05:38 PM 34.3381 -99.1817 122° Southeast 449 517 32,100 -1,050 Descending Fort Worth Center
Thu 07:06:38 PM 34.2606 -99.0519 126° Southeast 444 511 30,800 -1,250 Descending Fort Worth Center
Thu 07:07:38 PM 34.1933 -98.9350 125° Southeast 444 511 29,600 -1,200 Descending Fort Worth Center
Thu 07:08:38 PM 34.1217 -98.8158 126° Southeast 438 504 28,400 -900 Descending Fort Worth Center
Thu 07:09:38 PM 34.0500 -98.6919 125° Southeast 437 503 27,800 -700 Descending Fort Worth Center
Thu 07:10:38 PM 33.9781 -98.5731 126° Southeast 437 503 27,000 -950 Descending Fort Worth Center
Thu 07:11:38 PM 33.9122 -98.4572 124° Southeast 447 514 25,900 -1,650 Descending Fort Worth Center
Thu 07:12:38 PM 33.8381 -98.3286 125° Southeast 441 507 23,700 -2,050 Descending Fort Worth Center
Thu 07:13:38 PM 33.7700 -98.2156 126° Southeast 430 495 21,800 -1,900 Descending Fort Worth Center
Thu 07:14:38 PM 33.7061 -98.1075 125° Southeast 416 479 19,900 -2,200 Descending Fort Worth Center
Thu 07:15:38 PM 33.6503 -98.0122 125° Southeast 402 463 17,400 -2,200 Descending Fort Worth Center
Thu 07:16:38 PM 33.5900 -97.9097 125° Southeast 387 445 15,500 -1,800 Descending Fort Worth Center
Thu 07:17:38 PM 33.5236 -97.8097 129° Southeast 381 438 13,800 -1,800 Descending Fort Worth Center
Thu 07:18:38 PM 33.4489 -97.7222 136° Southeast 354 407 11,900 -1,350 Descending Fort Worth Center
Thu 07:19:38 PM 33.3906 -97.6497 134° Southeast 336 387 11,100 -1,050 Descending Fort Worth Center
Thu 07:20:38 PM 33.3300 -97.5800 136° Southeast 315 362 9,800 -1,400 Descending Fort Worth Center
Thu 07:21:38 PM 33.2675 -97.5003 133° Southeast 304 350 8,300 -1,350 Descending Fort Worth Center
Thu 07:22:38 PM 33.2175 -97.4383 134° Southeast 304 350 7,100 -1,200 Descending Fort Worth Center
Thu 07:23:38 PM 33.1569 -97.3639 134° Southeast 299 344 5,900 -1,000 Descending Fort Worth Center
Thu 07:24:38 PM 33.1150 -97.3042 130° Southeast 276 318 5,100 -700 Descending Fort Worth Center
Thu 07:25:38 PM 33.0650 -97.2425 134° Southeast 244 281 4,500 -650 Descending Fort Worth Center
Thu 07:26:38 PM 33.0211 -97.2003 141° Southeast 221 254 3,800 -750 Descending Fort Worth Center
Thu 07:27:38 PM 32.9814 -97.1583 138° Southeast 191 220 3,000 -1,000 Descending Fort Worth Center
Thu 07:28:38 PM 32.9500 -97.1286 142° Southeast 161 185 1,800 -1,050 Descending Fort Worth Center
Thu 07:29:38 PM 32.9164 -97.0942 139° Southeast 151 174 900 -550 Descending Fort Worth Center
Thu 07:30:38 PM 32.8892 -97.0669 140° Southeast 151 174 700 -200 Descending Fort Worth Center

Login

Don't have an account? Register now (free) for customized features, flight alerts, and more!